Time;durP1;ratioP1;P1;durP2;ratioP2;P2;SDS_P1;SDS_P2;PMS_P1;PMS_P2;Temp;Humidity;BMP_temperature;BMP_pressure;BME280_temperature;BME280_humidity;BME280_pressure;Samples;Min_cycle;Max_cycle;Signal;HPM_P1;HPM_P2
2023/12/06 07:04:32;;;;;;;17.93;8.70;;;;;;;;;;5415366;23;20493;-81
2023/12/06 07:06:57;;;;;;;20.47;9.40;;;;;;;;;;4948097;28;20059;-81
2023/12/06 07:09:23;;;;;;;23.93;9.87;;;;;;;;;;4951664;28;20466;-82
2023/12/06 07:11:48;;;;;;;26.07;10.33;;;;;;;;;;4957223;28;20545;-82
2023/12/06 07:14:13;;;;;;;18.77;9.47;;;;;;;;;;4947412;29;20071;-82
2023/12/06 07:16:39;;;;;;;19.93;9.83;;;;;;;;;;4948700;28;20058;-82
2023/12/06 07:19:04;;;;;;;20.07;9.07;;;;;;;;;;4953084;28;20027;-87
2023/12/06 07:21:29;;;;;;;22.07;9.33;;;;;;;;;;4965717;28;20023;-87
2023/12/06 07:23:54;;;;;;;20.30;9.43;;;;;;;;;;4952791;28;20077;-86
2023/12/06 07:26:19;;;;;;;25.53;10.47;;;;;;;;;;4947838;29;20105;-87
2023/12/06 07:28:45;;;;;;;24.90;10.63;;;;;;;;;;4954018;28;20137;-86
2023/12/06 07:31:10;;;;;;;21.27;10.37;;;;;;;;;;4952105;28;20450;-87
2023/12/06 07:33:35;;;;;;;37.80;13.57;;;;;;;;;;4950220;28;20470;-87
2023/12/06 07:36:01;;;;;;;27.93;12.33;;;;;;;;;;4953782;28;20043;-87
2023/12/06 07:38:27;;;;;;;21.17;9.63;;;;;;;;;;4948727;28;20032;-87
2023/12/06 07:40:53;;;;;;;28.10;13.17;;;;;;;;;;4954915;28;20023;-87
2023/12/06 07:43:18;;;;;;;29.43;14.57;;;;;;;;;;4952688;28;20028;-87
2023/12/06 07:45:44;;;;;;;28.13;12.33;;;;;;;;;;4956469;28;20023;-87
2023/12/06 07:48:10;;;;;;;27.60;11.90;;;;;;;;;;4944845;29;20024;-87
2023/12/06 07:50:35;;;;;;;18.27;8.90;;;;;;;;;;4954022;28;20023;-86
2023/12/06 07:53:00;;;;;;;23.37;10.17;;;;;;;;;;4960627;28;20102;-87
2023/12/06 07:55:26;;;;;;;21.63;8.83;;;;;;;;;;4956013;28;20054;-88
2023/12/06 07:57:51;;;;;;;26.87;13.17;;;;;;;;;;4952452;28;20411;-86
2023/12/06 08:00:19;;;;;;;20.30;10.13;;;;;;;;;;4955054;28;20039;-87
2023/12/06 08:02:45;;;;;;;21.80;10.00;;;;;;;;;;4954767;28;20023;-87
2023/12/06 08:05:11;;;;;;;19.27;8.77;;;;;;;;;;4955567;28;20447;-87
2023/12/06 08:07:37;;;;;;;17.87;7.70;;;;;;;;;;4954199;28;20055;-86
2023/12/06 08:10:08;;;;;;;26.63;12.00;;;;;;;;;;4954244;28;20390;-87
2023/12/06 08:12:33;;;;;;;30.73;12.97;;;;;;;;;;4950974;28;20023;-87
2023/12/06 08:14:59;;;;;;;19.43;9.33;;;;;;;;;;4954069;28;20026;-86
2023/12/06 08:17:24;;;;;;;17.80;9.07;;;;;;;;;;4950909;28;20022;-87
2023/12/06 08:19:49;;;;;;;21.73;9.87;;;;;;;;;;4950831;28;20030;-86
2023/12/06 08:22:15;;;;;;;22.33;10.60;;;;;;;;;;4954613;28;20027;-88
2023/12/06 08:24:40;;;;;;;22.33;8.63;;;;;;;;;;4951243;28;20026;-87
2023/12/06 08:27:05;;;;;;;25.97;11.30;;;;;;;;;;4953588;28;20031;-88
2023/12/06 08:29:31;;;;;;;27.33;12.00;;;;;;;;;;4954835;28;20015;-94
2023/12/06 08:31:56;;;;;;;27.77;11.10;;;;;;;;;;4955860;29;20038;-94
2023/12/06 08:34:21;;;;;;;16.70;7.17;;;;;;;;;;4955819;29;20132;-92
2023/12/06 08:36:47;;;;;;;21.23;9.23;;;;;;;;;;4956110;29;20015;-92
2023/12/06 08:39:12;;;;;;;22.30;8.83;;;;;;;;;;4955895;29;20117;-95
2023/12/06 08:41:37;;;;;;;18.42;8.73;;;;;;;;;;4955971;28;20034;-94
2023/12/06 08:44:04;;;;;;;19.65;8.48;;;;;;;;;;4955310;28;20107;-91
2023/12/06 08:46:30;;;;;;;18.23;8.68;;;;;;;;;;4958555;28;20023;-91
2023/12/06 08:48:55;;;;;;;21.58;8.57;;;;;;;;;;4954445;28;20029;-91
2023/12/06 08:51:20;;;;;;;17.88;7.90;;;;;;;;;;4956403;28;20023;-88
2023/12/06 08:53:45;;;;;;;17.13;7.15;;;;;;;;;;4954174;28;20544;-87
2023/12/06 08:56:11;;;;;;;15.98;7.75;;;;;;;;;;4953499;28;20844;-88
2023/12/06 08:58:36;;;;;;;18.15;8.70;;;;;;;;;;4954838;28;20359;-87
2023/12/06 09:01:01;;;;;;;18.88;7.75;;;;;;;;;;4954205;28;20053;-88
2023/12/06 09:03:26;;;;;;;24.35;8.30;;;;;;;;;;4956283;28;20110;-87
2023/12/06 09:05:51;;;;;;;12.73;5.90;;;;;;;;;;4955239;28;20027;-87
2023/12/06 09:08:17;;;;;;;16.45;5.47;;;;;;;;;;4953654;28;20031;-88
2023/12/06 09:10:42;;;;;;;17.35;7.47;;;;;;;;;;4956978;28;20457;-87
2023/12/06 09:13:07;;;;;;;19.95;9.02;;;;;;;;;;4959725;28;20027;-86
2023/12/06 09:15:32;;;;;;;19.10;9.10;;;;;;;;;;4952692;28;20054;-86
2023/12/06 09:17:58;;;;;;;19.83;9.27;;;;;;;;;;4952359;28;20054;-86
2023/12/06 09:20:23;;;;;;;18.50;9.33;;;;;;;;;;4952480;28;20045;-87
2023/12/06 09:22:49;;;;;;;24.33;11.03;;;;;;;;;;4952780;29;20023;-87
2023/12/06 09:25:14;;;;;;;22.87;9.60;;;;;;;;;;4952702;29;20023;-87
2023/12/06 09:27:39;;;;;;;22.47;8.97;;;;;;;;;;4955365;28;20062;-87
2023/12/06 09:30:05;;;;;;;18.47;8.43;;;;;;;;;;4951731;28;20019;-86
2023/12/06 09:32:30;;;;;;;21.73;10.33;;;;;;;;;;4951726;28;20431;-87
2023/12/06 09:34:55;;;;;;;22.50;8.93;;;;;;;;;;4957605;28;20065;-86
2023/12/06 09:37:21;;;;;;;21.90;9.03;;;;;;;;;;4958007;28;20382;-86
2023/12/06 09:39:46;;;;;;;21.97;9.40;;;;;;;;;;4954066;28;20057;-86
2023/12/06 09:42:11;;;;;;;22.47;8.97;;;;;;;;;;4952149;29;20113;-86
2023/12/06 09:44:37;;;;;;;17.40;7.77;;;;;;;;;;4949405;28;20027;-87
2023/12/06 09:47:02;;;;;;;25.33;9.00;;;;;;;;;;4954852;28;20023;-86
2023/12/06 09:49:28;;;;;;;20.23;8.43;;;;;;;;;;4953767;28;20027;-87
2023/12/06 09:51:57;;;;;;;22.97;8.83;;;;;;;;;;4955872;28;20038;-87
2023/12/06 09:54:22;;;;;;;18.90;8.37;;;;;;;;;;4953103;28;20023;-87
2023/12/06 09:56:47;;;;;;;17.77;7.53;;;;;;;;;;4952724;28;20474;-87
2023/12/06 09:59:13;;;;;;;20.53;8.77;;;;;;;;;;4953512;28;20034;-86
2023/12/06 10:01:38;;;;;;;18.73;7.63;;;;;;;;;;4948486;28;20062;-85
2023/12/06 10:04:04;;;;;;;19.57;8.30;;;;;;;;;;4950758;28;20117;-87
2023/12/06 10:06:29;;;;;;;17.40;8.00;;;;;;;;;;4955277;28;20118;-89
2023/12/06 10:08:55;;;;;;;21.40;8.77;;;;;;;;;;4952954;28;20055;-90
2023/12/06 10:11:23;;;;;;;20.23;8.10;;;;;;;;;;4959200;28;20375;-91
2023/12/06 10:13:49;;;;;;;20.90;7.53;;;;;;;;;;4953836;28;20019;-90
2023/12/06 10:16:15;;;;;;;18.17;7.67;;;;;;;;;;4953892;28;20026;-90
2023/12/06 10:18:40;;;;;;;13.70;6.53;;;;;;;;;;4952433;29;20070;-90
2023/12/06 10:21:06;;;;;;;18.80;7.00;;;;;;;;;;4952901;29;20138;-90
2023/12/06 10:23:31;;;;;;;18.70;7.70;;;;;;;;;;4945299;29;20023;-89
2023/12/06 10:25:57;;;;;;;15.53;7.40;;;;;;;;;;4953222;29;20066;-90
2023/12/06 10:28:22;;;;;;;22.50;7.37;;;;;;;;;;4952158;29;20034;-90
2023/12/06 10:30:58;;;;;;;22.13;8.37;;;;;;;;;;4958817;28;20609;-91
2023/12/06 10:33:25;;;;;;;17.00;7.10;;;;;;;;;;4952442;29;20039;-90
2023/12/06 10:35:50;;;;;;;17.70;8.40;;;;;;;;;;4953399;28;20061;-90
2023/12/06 10:38:15;;;;;;;16.27;7.20;;;;;;;;;;4952662;28;20079;-90
2023/12/06 10:40:41;;;;;;;16.10;6.87;;;;;;;;;;4958535;28;20031;-90
2023/12/06 10:43:07;;;;;;;16.50;7.60;;;;;;;;;;4951876;28;20509;-90
2023/12/06 10:45:33;;;;;;;13.13;6.57;;;;;;;;;;4952444;29;20072;-91
2023/12/06 10:47:58;;;;;;;18.90;7.87;;;;;;;;;;4953848;28;20024;-91
2023/12/06 10:50:24;;;;;;;16.77;8.00;;;;;;;;;;4952379;28;20027;-91
2023/12/06 10:52:50;;;;;;;15.40;7.40;;;;;;;;;;4952530;28;20046;-91
2023/12/06 10:55:16;;;;;;;15.47;7.40;;;;;;;;;;4952796;28;20024;-91
2023/12/06 10:57:41;;;;;;;21.50;8.27;;;;;;;;;;4952374;29;20023;-91
2023/12/06 11:00:07;;;;;;;16.17;7.83;;;;;;;;;;4953325;28;20021;-92
2023/12/06 11:02:33;;;;;;;18.43;8.10;;;;;;;;;;4954251;28;20035;-86
2023/12/06 11:05:05;;;;;;;17.77;8.30;;;;;;;;;;4951908;28;20059;-86
2023/12/06 11:07:42;;;;;;;21.00;8.17;;;;;;;;;;4953576;28;20045;-86
2023/12/06 11:10:13;;;;;;;17.33;8.20;;;;;;;;;;4950200;28;20566;-85
2023/12/06 11:12:45;;;;;;;18.97;8.03;;;;;;;;;;4959787;28;20023;-83
2023/12/06 11:15:28;;;;;;;15.10;7.03;;;;;;;;;;4955664;28;20333;-83
2023/12/06 11:18:03;;;;;;;18.00;8.33;;;;;;;;;;4955501;29;20027;-84
2023/12/06 11:20:28;;;;;;;20.00;9.17;;;;;;;;;;4967174;28;20465;-83
2023/12/06 11:22:53;;;;;;;18.20;7.27;;;;;;;;;;4955769;29;20023;-84
2023/12/06 11:25:19;;;;;;;18.40;7.07;;;;;;;;;;4956819;28;20119;-83
2023/12/06 11:27:45;;;;;;;17.53;7.73;;;;;;;;;;4955542;29;20479;-84
2023/12/06 11:30:19;;;;;;;20.37;7.67;;;;;;;;;;4956610;28;20019;-84
2023/12/06 11:32:45;;;;;;;18.00;7.40;;;;;;;;;;4955327;29;20109;-83
2023/12/06 11:35:11;;;;;;;18.53;8.03;;;;;;;;;;4954791;28;20109;-83
2023/12/06 11:37:36;;;;;;;14.40;6.63;;;;;;;;;;4955089;28;20550;-83
2023/12/06 11:40:20;;;;;;;14.47;7.10;;;;;;;;;;4954661;28;20058;-84
2023/12/06 11:42:56;;;;;;;21.50;7.83;;;;;;;;;;4953502;28;20476;-83
2023/12/06 11:45:22;;;;;;;14.63;6.27;;;;;;;;;;4954844;28;20024;-83
2023/12/06 11:47:47;;;;;;;17.13;7.07;;;;;;;;;;4954599;29;20050;-83
2023/12/06 11:50:12;;;;;;;17.40;6.83;;;;;;;;;;4954356;28;20368;-83
2023/12/06 11:52:46;;;;;;;17.07;6.97;;;;;;;;;;4958015;28;20023;-83
2023/12/06 11:55:12;;;;;;;21.03;7.43;;;;;;;;;;4955030;28;20110;-84
2023/12/06 11:57:57;;;;;;;14.90;5.90;;;;;;;;;;4957028;28;20495;-83
2023/12/06 12:00:22;;;;;;;18.67;8.10;;;;;;;;;;4955543;28;20101;-83
2023/12/06 12:02:48;;;;;;;16.83;7.57;;;;;;;;;;4955057;28;20058;-84
2023/12/06 12:05:14;;;;;;;18.47;6.70;;;;;;;;;;4953723;28;20042;-83
2023/12/06 12:07:40;;;;;;;16.10;6.43;;;;;;;;;;4954961;28;20019;-85
2023/12/06 12:10:07;;;;;;;14.97;6.30;;;;;;;;;;4957109;28;20090;-85
2023/12/06 12:12:38;;;;;;;19.13;6.53;;;;;;;;;;4948859;28;20028;-84
2023/12/06 12:15:04;;;;;;;23.52;6.82;;;;;;;;;;4959454;28;20024;-85
2023/12/06 12:17:30;;;;;;;18.20;6.97;;;;;;;;;;4955171;28;20037;-84
2023/12/06 12:19:55;;;;;;;18.47;7.47;;;;;;;;;;4957171;28;20045;-83
2023/12/06 12:22:20;;;;;;;12.47;6.37;;;;;;;;;;4958160;28;20051;-84
2023/12/06 12:24:45;;;;;;;17.30;6.20;;;;;;;;;;4954030;28;20015;-83
2023/12/06 12:27:10;;;;;;;16.50;6.17;;;;;;;;;;4951113;28;20023;-83
2023/12/06 12:29:36;;;;;;;17.00;6.40;;;;;;;;;;4949716;28;20015;-83
2023/12/06 12:32:02;;;;;;;14.50;6.20;;;;;;;;;;4957235;28;20368;-83
2023/12/06 12:34:28;;;;;;;16.73;5.90;;;;;;;;;;4949167;28;20031;-84
2023/12/06 12:36:55;;;;;;;14.40;6.13;;;;;;;;;;4952886;28;20569;-84
2023/12/06 12:39:20;;;;;;;18.63;6.33;;;;;;;;;;4952196;28;20039;-84
2023/12/06 12:41:45;;;;;;;17.00;5.90;;;;;;;;;;4953309;28;20117;-83
2023/12/06 12:44:11;;;;;;;16.47;6.50;;;;;;;;;;4951160;28;20066;-84
2023/12/06 12:46:36;;;;;;;19.43;6.43;;;;;;;;;;4954596;28;20019;-83
2023/12/06 12:49:04;;;;;;;14.80;5.90;;;;;;;;;;4953143;28;20098;-84
2023/12/06 12:51:32;;;;;;;19.03;7.30;;;;;;;;;;4953229;28;20167;-84
2023/12/06 12:53:57;;;;;;;15.00;6.33;;;;;;;;;;4959005;28;20019;-85
2023/12/06 12:56:23;;;;;;;15.90;6.30;;;;;;;;;;4953020;29;20023;-84
2023/12/06 12:58:48;;;;;;;15.60;6.50;;;;;;;;;;4955117;28;20035;-84
2023/12/06 13:01:13;;;;;;;18.57;6.10;;;;;;;;;;4952515;28;20083;-83
2023/12/06 13:03:40;;;;;;;13.70;6.33;;;;;;;;;;4947007;28;20027;-84
2023/12/06 13:06:06;;;;;;;17.83;6.57;;;;;;;;;;4950479;28;20051;-84
2023/12/06 13:08:32;;;;;;;17.40;5.70;;;;;;;;;;4956473;28;20054;-84
2023/12/06 13:11:00;;;;;;;13.57;5.80;;;;;;;;;;4956717;28;20047;-83
2023/12/06 13:13:25;;;;;;;14.97;6.70;;;;;;;;;;4956603;28;20502;-83
2023/12/06 13:15:51;;;;;;;14.03;6.73;;;;;;;;;;4959551;28;20050;-84
2023/12/06 13:18:16;;;;;;;18.90;6.60;;;;;;;;;;4954035;29;20029;-83
2023/12/06 13:20:42;;;;;;;15.90;6.03;;;;;;;;;;4954535;28;20042;-83
2023/12/06 13:23:07;;;;;;;15.90;6.87;;;;;;;;;;4948844;29;20022;-84
2023/12/06 13:25:32;;;;;;;11.17;4.70;;;;;;;;;;4958038;28;20031;-83
2023/12/06 13:27:57;;;;;;;12.97;5.80;;;;;;;;;;4948711;28;20407;-84
2023/12/06 13:30:22;;;;;;;14.40;6.20;;;;;;;;;;4954252;28;20041;-84
2023/12/06 13:32:48;;;;;;;17.60;6.17;;;;;;;;;;4956513;28;20602;-84
2023/12/06 13:35:13;;;;;;;13.10;6.33;;;;;;;;;;4946997;29;20015;-84
2023/12/06 13:37:38;;;;;;;11.40;5.03;;;;;;;;;;4953334;29;20489;-84
2023/12/06 13:40:04;;;;;;;12.23;6.20;;;;;;;;;;4953621;28;20066;-83
2023/12/06 13:42:29;;;;;;;19.53;7.03;;;;;;;;;;4946075;28;20034;-84
2023/12/06 13:44:54;;;;;;;16.00;6.20;;;;;;;;;;4954559;28;20027;-88
2023/12/06 13:47:20;;;;;;;20.37;7.23;;;;;;;;;;4946919;29;20030;-88
2023/12/06 13:49:47;;;;;;;16.03;6.30;;;;;;;;;;4958523;28;20017;-89
2023/12/06 13:52:12;;;;;;;16.20;6.27;;;;;;;;;;4959466;28;20023;-89
2023/12/06 13:54:38;;;;;;;16.40;6.10;;;;;;;;;;4952199;28;20043;-89
2023/12/06 13:57:04;;;;;;;15.27;5.50;;;;;;;;;;4952925;28;20103;-88
2023/12/06 13:59:29;;;;;;;18.13;5.87;;;;;;;;;;4951278;28;20035;-87
2023/12/06 14:01:55;;;;;;;14.30;5.83;;;;;;;;;;4950663;29;20019;-88
2023/12/06 14:04:20;;;;;;;13.50;5.43;;;;;;;;;;4953120;28;20526;-87
2023/12/06 14:06:45;;;;;;;15.90;6.60;;;;;;;;;;4952534;29;20038;-87
2023/12/06 14:09:10;;;;;;;15.27;6.03;;;;;;;;;;4956822;28;20454;-90
2023/12/06 14:11:36;;;;;;;17.60;6.10;;;;;;;;;;4956486;28;20447;-89
2023/12/06 14:14:01;;;;;;;20.40;6.50;;;;;;;;;;4953456;28;20011;-89
2023/12/06 14:16:26;;;;;;;14.13;5.73;;;;;;;;;;4957472;28;20023;-90
2023/12/06 14:18:52;;;;;;;10.63;5.53;;;;;;;;;;4955909;28;20724;-90
2023/12/06 14:21:18;;;;;;;11.03;5.27;;;;;;;;;;4952011;28;20030;-90
2023/12/06 14:23:43;;;;;;;10.07;5.27;;;;;;;;;;4952178;29;20479;-87
2023/12/06 14:26:12;;;;;;;14.50;5.90;;;;;;;;;;4953619;29;20055;-88
2023/12/06 14:28:38;;;;;;;13.77;5.73;;;;;;;;;;4953751;28;20023;-90
2023/12/06 14:31:04;;;;;;;20.97;5.90;;;;;;;;;;4963011;28;20016;-91
2023/12/06 14:33:29;;;;;;;16.30;5.27;;;;;;;;;;4958156;28;20015;-90
2023/12/06 14:35:54;;;;;;;19.63;5.27;;;;;;;;;;4952885;29;20079;-90
2023/12/06 14:38:20;;;;;;;15.13;5.70;;;;;;;;;;4955753;28;20034;-88
2023/12/06 14:40:45;;;;;;;15.60;5.60;;;;;;;;;;4950996;28;20470;-89
2023/12/06 14:43:10;;;;;;;14.47;5.43;;;;;;;;;;4952587;29;20101;-90
2023/12/06 14:45:35;;;;;;;9.77;5.00;;;;;;;;;;4956863;28;20033;-90
2023/12/06 14:48:01;;;;;;;13.57;4.67;;;;;;;;;;4950855;28;20026;-90
2023/12/06 14:50:26;;;;;;;13.67;6.00;;;;;;;;;;4956136;28;20367;-88
2023/12/06 14:52:51;;;;;;;17.60;5.07;;;;;;;;;;4956098;29;20034;-88
2023/12/06 14:55:16;;;;;;;10.40;4.80;;;;;;;;;;4956390;29;20102;-89
2023/12/06 14:57:42;;;;;;;12.17;4.40;;;;;;;;;;4956131;29;20026;-88
2023/12/06 15:00:09;;;;;;;11.40;5.03;;;;;;;;;;4955712;28;20026;-89
2023/12/06 15:02:37;;;;;;;11.53;4.60;;;;;;;;;;4956131;28;20093;-88
2023/12/06 15:05:02;;;;;;;19.27;5.57;;;;;;;;;;4946140;29;20024;-90
2023/12/06 15:07:27;;;;;;;14.70;6.20;;;;;;;;;;4956398;29;20050;-90
2023/12/06 15:09:52;;;;;;;13.87;4.90;;;;;;;;;;4955234;28;20481;-89
2023/12/06 15:12:18;;;;;;;12.33;5.63;;;;;;;;;;4958976;28;20027;-89
2023/12/06 15:14:45;;;;;;;11.87;4.97;;;;;;;;;;4956153;29;20082;-87
2023/12/06 15:17:10;;;;;;;17.53;5.60;;;;;;;;;;4957099;28;20077;-89
2023/12/06 15:19:35;;;;;;;20.53;5.50;;;;;;;;;;4957727;28;20433;-90
2023/12/06 15:22:00;;;;;;;14.53;5.43;;;;;;;;;;4956750;29;20485;-86
2023/12/06 15:24:26;;;;;;;10.57;4.90;;;;;;;;;;4955914;29;20386;-89
2023/12/06 15:26:51;;;;;;;16.63;7.03;;;;;;;;;;4955719;29;20748;-90
2023/12/06 15:29:16;;;;;;;17.23;6.27;;;;;;;;;;4962351;28;20422;-88
2023/12/06 15:31:45;;;;;;;18.03;6.07;;;;;;;;;;4959337;28;20024;-88
2023/12/06 15:34:10;;;;;;;16.70;5.97;;;;;;;;;;4952892;29;20097;-90
2023/12/06 15:36:36;;;;;;;15.63;6.57;;;;;;;;;;4954158;29;20086;-91
2023/12/06 15:39:01;;;;;;;17.50;5.33;;;;;;;;;;4959216;28;20021;-87
2023/12/06 15:41:26;;;;;;;14.10;6.13;;;;;;;;;;4956322;28;20383;-87
2023/12/06 15:43:51;;;;;;;10.30;5.30;;;;;;;;;;4954890;28;20070;-87
2023/12/06 15:46:17;;;;;;;10.63;5.40;;;;;;;;;;4954577;28;20450;-87
2023/12/06 15:48:42;;;;;;;15.23;5.90;;;;;;;;;;4954860;29;20800;-87
2023/12/06 15:51:07;;;;;;;11.53;5.83;;;;;;;;;;4958242;28;20594;-87
2023/12/06 15:53:33;;;;;;;10.33;5.77;;;;;;;;;;4954336;28;20027;-87
2023/12/06 15:55:59;;;;;;;11.77;5.47;;;;;;;;;;4962330;28;20059;-86
2023/12/06 15:58:24;;;;;;;14.23;5.37;;;;;;;;;;4953638;28;20380;-87
2023/12/06 16:00:52;;;;;;;12.97;5.87;;;;;;;;;;4961811;28;20077;-87
2023/12/06 16:03:17;;;;;;;10.40;5.73;;;;;;;;;;4953984;29;20549;-86
2023/12/06 16:05:42;;;;;;;16.87;7.00;;;;;;;;;;4954644;29;20023;-87
2023/12/06 16:08:08;;;;;;;10.47;5.70;;;;;;;;;;4954426;29;20027;-86
2023/12/06 16:10:33;;;;;;;11.97;5.60;;;;;;;;;;4957882;28;20394;-86
2023/12/06 16:12:58;;;;;;;14.23;5.47;;;;;;;;;;4962635;28;20359;-87
2023/12/06 16:15:23;;;;;;;14.50;5.83;;;;;;;;;;4954620;29;20471;-86
2023/12/06 16:17:49;;;;;;;14.37;6.77;;;;;;;;;;4955144;28;20474;-87
2023/12/06 16:20:14;;;;;;;12.47;5.60;;;;;;;;;;4955938;28;20375;-86
2023/12/06 16:22:39;;;;;;;17.60;6.40;;;;;;;;;;4961479;28;20019;-86
2023/12/06 16:25:06;;;;;;;11.40;5.10;;;;;;;;;;4954468;29;20027;-87
2023/12/06 16:27:31;;;;;;;15.53;6.50;;;;;;;;;;4953432;29;20373;-87
2023/12/06 16:29:56;;;;;;;17.63;6.70;;;;;;;;;;4954288;28;20098;-87
2023/12/06 16:32:22;;;;;;;15.53;5.83;;;;;;;;;;4965384;28;20374;-86
2023/12/06 16:34:49;;;;;;;13.93;5.80;;;;;;;;;;4964250;28;20461;-86
2023/12/06 16:37:15;;;;;;;12.07;5.97;;;;;;;;;;4953551;28;20034;-86
2023/12/06 16:39:40;;;;;;;15.03;5.83;;;;;;;;;;4957417;28;20015;-86
2023/12/06 16:42:06;;;;;;;11.70;5.97;;;;;;;;;;4954836;28;20071;-86
2023/12/06 16:44:31;;;;;;;15.67;6.30;;;;;;;;;;4953134;29;20023;-86
2023/12/06 16:46:56;;;;;;;17.50;7.37;;;;;;;;;;4958646;28;20023;-87
2023/12/06 16:49:21;;;;;;;14.40;6.70;;;;;;;;;;4968336;28;20435;-86
2023/12/06 16:51:49;;;;;;;15.27;7.27;;;;;;;;;;4959940;28;20109;-86
2023/12/06 16:54:14;;;;;;;19.37;6.70;;;;;;;;;;4963497;28;20023;-86
2023/12/06 16:56:39;;;;;;;13.20;6.10;;;;;;;;;;4962271;28;20098;-83
2023/12/06 16:59:06;;;;;;;14.43;5.83;;;;;;;;;;4953666;29;20084;-84
2023/12/06 17:01:35;;;;;;;16.67;6.37;;;;;;;;;;4960332;28;20479;-83
2023/12/06 17:04:00;;;;;;;12.27;5.43;;;;;;;;;;4954677;28;20020;-84
2023/12/06 17:06:25;;;;;;;13.60;4.93;;;;;;;;;;4949730;29;20027;-84
2023/12/06 17:08:51;;;;;;;13.90;5.43;;;;;;;;;;4953614;28;20051;-84
2023/12/06 17:11:16;;;;;;;15.10;5.47;;;;;;;;;;4960616;28;20027;-84
2023/12/06 17:13:41;;;;;;;16.87;6.77;;;;;;;;;;4954732;28;20014;-83
2023/12/06 17:16:07;;;;;;;22.07;7.33;;;;;;;;;;4964449;28;20026;-83
2023/12/06 17:18:32;;;;;;;26.43;7.97;;;;;;;;;;4961912;28;20122;-84
2023/12/06 17:20:57;;;;;;;25.73;9.10;;;;;;;;;;4952135;28;20461;-83
2023/12/06 17:23:23;;;;;;;22.33;8.33;;;;;;;;;;4953112;29;20110;-83
2023/12/06 17:25:48;;;;;;;14.50;6.37;;;;;;;;;;4948716;28;20031;-84
2023/12/06 17:28:13;;;;;;;18.20;7.30;;;;;;;;;;4955282;28;20019;-84
2023/12/06 17:30:39;;;;;;;14.23;6.43;;;;;;;;;;4949185;28;20478;-84
2023/12/06 17:33:04;;;;;;;17.57;8.33;;;;;;;;;;4955701;28;20027;-84
2023/12/06 17:35:30;;;;;;;21.77;7.83;;;;;;;;;;4953737;28;20027;-84
2023/12/06 17:37:55;;;;;;;17.93;7.63;;;;;;;;;;4953112;28;20094;-83
